Pocono Lake, Pennsylvania
Current Conditions -  °F | °C
As of 6:53 PM on Friday 21 Nov 2014 (Local Time) from KMPO Reporting Station
Clear Clear  
Wind Chill: -11°   Ceiling: Unl
Heat Index: -7°   Visibility: 10mi
Dew Point: -14°   Wind: 6mph
Humidity: 57%   Direction: 300°WNW
Pressure: 30.36"   Gusts: NA
Location:  41.09°N, 75.58°W
Report Text: KMPO 212353Z AUTO 30005KT 10SM CLR M07/M14 A3036 RMK AO2 SLP314 T10671139 11022 21067 51023
Loading
Personal Weather Stations






























Interactive Weather Map New forecast layout! Learn more

10-Day Weather Forecast

Advertisements
Track Severe Weather on mobile